EZE weather

Ministro Pistarini International Airport
Buenos Aires, Buenos Aires Province, Argentina

Public forecast

Using degrees Celsius for public forecast. Weather courtesy of forecast.io.

METAR (pilot weather report)

Retrieved 2019/04/22 14:00 UTC (15 minutes ago):

SAEZ 221400Z 11003KT CAVOK 15/11 Q1022 NOSIG

TAF (pilot weather forecast)

Retrieved 2019/04/22 12:00 UTC (2 hours ago):

TAF SAEZ 221100Z 2212/2312 19005KT 8000 NSC TX21/2219Z TN12/2310Z BECMG 2212/2214 CAVOK BECMG 2223/2301 09005KT BECMG 2305/2307 5000 BR SCT015 PROB40 TEMPO 2308/2312 3000 DZ SCT010 BKN030